首页
METAR-TAF:

METAR-TAF

机场 :

巴馬科國際機場

巴馬科, 马里共和国

纬度: 12-32N, 经度: 007-57W, 海拔: 380米

当前天气观测

该预报发布于38分钟前的18:00 UTC
风速13节,风向东北
温度 31°C
湿度 10%
气压 1014 hPa
能見度: 4000
浮尘

METAR: GABS 241800Z 04013KT 4000 DU NSC 31/M04 Q1014 NOSIG

时间: 18:38 (18:38 UTC)

预报

该预报发布于1小时和38分钟前的17:00 UTC
预报有效从24日的 18点(UTC)到 25日的 24点(UTC)
风速10节,风向东转东北,有时为20节阵风
能見度: 5000
浮尘
短暂存在
从 25日的 06点(UTC)到 25日的 15点(UTC)
能見度: 3000

TAF: GABS 241700Z 2418/2524 06010G20KT 5000 DU NSC TEMPO 2506/2515 3000

超过4000个机场的气象观测和天气预报(METAR&TAF报告)。

可查询的气象台以黄色和红色小点在地图上表示。

将鼠标移到小点上方,可查看气象台名称。

然后点击查看天气观测和预报。

如需切换地图:点击带黑十字的绿色按钮放大地图;点击带横线的绿色按钮缩小地图;或者点击绿色箭头查看邻近地区的地图。


METAR-TAF: